Aiea, Hawaii
Current Conditions -  °F | °C
As of 1:53 AM on Saturday 25 Oct 2014 (Local Time) from PHNL Reporting Station
Few Clouds Few Clouds  
Wind Chill: 25°   Ceiling: Unl
Heat Index: 26°   Visibility: 10mi
Dew Point: 21°   Wind: 5mph
Humidity: 79%   Direction: 40°NE
Pressure: 30.01"   Gusts: NA
Location:  21.38°N, 157.93°W
Report Text: PHNL 251153Z 04004KT 10SM FEW026 25/21 A3001 RMK AO2 SLP160 T02500211 10261 20250 58012
Loading
Personal Weather Stations






























Interactive Weather Map
Tropical Storm Tracking
New forecast layout! Learn more

10-Day Weather Forecast

Advertisements
Track Severe Weather on mobile